createdAt,value
2024-01-16T00:03:53.391Z,2.88
2024-01-16T00:08:55.585Z,2.84
2024-01-16T00:13:57.430Z,2.80
2024-01-16T00:18:59.076Z,2.82
2024-01-16T00:24:00.801Z,2.83
2024-01-16T00:29:02.447Z,2.84
2024-01-16T00:34:04.764Z,2.79
2024-01-16T00:39:09.337Z,2.79
2024-01-16T00:44:12.166Z,2.83
2024-01-16T00:49:15.944Z,2.76
2024-01-16T00:54:18.762Z,2.57
2024-01-16T00:59:22.789Z,2.53
2024-01-16T01:04:24.386Z,2.48
2024-01-16T01:09:26.035Z,2.47
2024-01-16T01:14:30.467Z,2.35
2024-01-16T01:19:32.301Z,2.30
2024-01-16T01:24:41.593Z,2.28
2024-01-16T01:29:43.632Z,2.24
2024-01-16T01:34:45.311Z,2.23
2024-01-16T01:39:47.038Z,2.33
2024-01-16T01:44:49.704Z,2.41
2024-01-16T01:49:52.963Z,2.37
2024-01-16T01:54:54.529Z,2.34
2024-01-16T01:59:56.991Z,2.49
2024-01-16T02:04:59.304Z,2.57
2024-01-16T02:10:01.784Z,2.70
2024-01-16T02:15:04.995Z,2.70
2024-01-16T02:25:10.980Z,2.79
2024-01-16T02:30:14.482Z,2.78
2024-01-16T02:35:16.971Z,2.85
2024-01-16T02:40:18.840Z,2.91
2024-01-16T02:45:21.156Z,2.96
2024-01-16T02:50:22.701Z,2.97
2024-01-16T02:55:24.375Z,2.97
2024-01-16T03:00:26.282Z,2.98
2024-01-16T03:05:27.968Z,2.93
2024-01-16T03:10:29.631Z,2.91
2024-01-16T03:15:32.251Z,2.92
2024-01-16T03:20:34.006Z,2.88
2024-01-16T03:25:40.180Z,2.83
2024-01-16T03:30:42.158Z,2.84
2024-01-16T03:35:44.132Z,2.85
2024-01-16T03:40:46.660Z,2.74
2024-01-16T03:45:48.388Z,2.73
2024-01-16T03:50:50.016Z,2.61
2024-01-16T03:55:52.301Z,2.62
2024-01-16T04:00:54.670Z,2.61
2024-01-16T04:05:56.568Z,2.69
2024-01-16T04:10:58.190Z,2.65
2024-01-16T04:15:59.966Z,2.65
2024-01-16T04:21:02.514Z,2.58
2024-01-16T04:26:04.223Z,2.62
2024-01-16T04:31:05.970Z,2.67
2024-01-16T04:36:10.992Z,2.69
2024-01-16T04:41:12.597Z,2.69
2024-01-16T04:46:15.991Z,2.70
2024-01-16T04:51:17.845Z,2.70
2024-01-16T04:56:19.418Z,2.63
2024-01-16T05:01:20.983Z,2.48
2024-01-16T05:06:22.668Z,2.40
2024-01-16T05:11:24.380Z,2.31
2024-01-16T05:16:26.945Z,2.23
2024-01-16T05:21:28.634Z,2.17
2024-01-16T05:26:30.300Z,2.23
2024-01-16T05:31:40.769Z,2.15
2024-01-16T05:36:42.907Z,2.11
2024-01-16T05:41:44.548Z,2.05
2024-01-16T05:46:46.862Z,1.98
2024-01-16T05:51:48.464Z,1.95
2024-01-16T05:56:51.517Z,1.92
2024-01-16T06:01:53.880Z,1.79
2024-01-16T06:06:55.928Z,1.83
2024-01-16T06:11:57.516Z,1.85
2024-01-16T06:16:59.145Z,1.80
2024-01-16T06:22:01.619Z,1.64
2024-01-16T06:27:06.396Z,1.62
2024-01-16T06:32:08.101Z,1.54
2024-01-16T06:37:10.598Z,1.53
2024-01-16T06:42:12.569Z,1.48
2024-01-16T06:47:14.196Z,1.39
2024-01-16T06:52:15.850Z,1.30
2024-01-16T06:57:19.116Z,1.23
2024-01-16T07:02:20.880Z,1.24
2024-01-16T07:07:22.568Z,1.16
2024-01-16T07:12:24.566Z,1.16
2024-01-16T07:17:26.411Z,1.15
2024-01-16T07:22:29.368Z,1.20
2024-01-16T07:27:31.907Z,1.15
2024-01-16T07:32:36.001Z,1.16
2024-01-16T07:37:40.366Z,1.11
2024-01-16T07:42:44.324Z,1.12
2024-01-16T07:47:48.062Z,1.13
2024-01-16T07:52:50.560Z,1.11
2024-01-16T07:57:52.606Z,1.17
2024-01-16T08:02:54.422Z,1.29
2024-01-16T08:07:56.064Z,1.38
2024-01-16T08:12:57.803Z,1.40
2024-01-16T08:17:59.796Z,1.55
2024-01-16T08:23:02.675Z,1.75
2024-01-16T08:28:06.203Z,1.65
2024-01-16T08:33:08.695Z,1.72
2024-01-16T08:38:12.886Z,1.83
2024-01-16T08:43:14.593Z,1.95
2024-01-16T08:48:16.748Z,1.92
2024-01-16T08:53:18.749Z,2.13
2024-01-16T08:58:20.495Z,2.11
2024-01-16T09:03:22.370Z,2.16
2024-01-16T09:08:24.241Z,2.13
2024-01-16T09:13:26.115Z,2.24
2024-01-16T09:18:27.895Z,2.34
2024-01-16T09:23:29.951Z,2.68
2024-01-16T09:28:31.710Z,2.82
2024-01-16T09:33:33.583Z,2.93
2024-01-16T09:38:35.608Z,2.90
2024-01-16T09:43:38.337Z,2.81
2024-01-16T09:48:43.922Z,2.76
2024-01-16T09:53:45.653Z,2.81
2024-01-16T09:58:50.176Z,2.83
2024-01-16T10:03:54.001Z,2.78
2024-01-16T10:08:55.895Z,2.85
2024-01-16T10:13:59.782Z,2.90
2024-01-16T10:19:07.747Z,3.04
2024-01-16T10:24:14.003Z,3.12
2024-01-16T10:29:15.732Z,3.23
2024-01-16T10:34:24.999Z,3.24
2024-01-16T10:39:35.948Z,3.36
2024-01-16T10:44:55.974Z,3.49
2024-01-16T10:49:58.204Z,3.62
2024-01-16T10:55:05.134Z,3.62
2024-01-16T11:00:09.940Z,3.61
2024-01-16T11:05:13.419Z,3.81
2024-01-16T11:10:17.168Z,3.93
2024-01-16T11:15:19.473Z,3.91
2024-01-16T11:25:34.468Z,4.18
2024-01-16T11:30:37.046Z,4.19
2024-01-16T11:35:39.955Z,4.31
2024-01-16T11:40:41.698Z,4.41
2024-01-16T11:45:50.432Z,4.42
2024-01-16T11:50:53.183Z,4.50
2024-01-16T11:56:38.069Z,4.62
2024-01-16T12:01:46.620Z,4.69
2024-01-16T12:07:01.991Z,4.90
2024-01-16T12:12:04.299Z,4.89
2024-01-16T12:17:10.963Z,4.99
2024-01-16T12:22:14.873Z,5.19
2024-01-16T12:27:16.852Z,5.28
2024-01-16T12:32:19.476Z,5.21
2024-01-16T12:37:21.034Z,5.24
2024-01-16T12:42:25.497Z,5.27
2024-01-16T12:47:27.825Z,5.46
2024-01-16T12:52:31.312Z,5.38
2024-01-16T12:57:33.239Z,5.17
2024-01-16T13:02:34.955Z,5.10
2024-01-16T13:07:36.857Z,4.96
2024-01-16T13:12:38.790Z,4.76
2024-01-16T13:17:40.273Z,4.77
2024-01-16T13:22:45.312Z,4.60
2024-01-16T13:27:49.188Z,4.53
2024-01-16T13:32:51.015Z,4.39
2024-01-16T13:37:52.536Z,4.48
2024-01-16T13:42:54.082Z,4.46
2024-01-16T13:47:56.390Z,4.42
2024-01-16T13:52:57.975Z,4.36
2024-01-16T13:57:59.557Z,4.25
2024-01-16T14:03:02.182Z,4.25
2024-01-16T14:08:04.104Z,4.17
2024-01-16T14:13:05.798Z,4.10
2024-01-16T14:18:07.275Z,4.07
2024-01-16T14:23:08.756Z,4.02
2024-01-16T14:28:18.320Z,4.03
2024-01-16T14:33:24.967Z,4.02
2024-01-16T14:38:26.463Z,4.06
2024-01-16T14:43:27.922Z,4.06
2024-01-16T14:48:29.485Z,4.06
2024-01-16T14:53:32.867Z,4.06
2024-01-16T14:58:34.264Z,4.03
2024-01-16T15:03:35.691Z,4.10
2024-01-16T15:08:37.232Z,4.15
2024-01-16T15:13:38.654Z,4.26
2024-01-16T15:18:40.372Z,4.29
2024-01-16T15:23:41.933Z,4.10
2024-01-16T15:28:45.303Z,4.04
2024-01-16T15:33:47.428Z,3.93
2024-01-16T15:38:49.989Z,3.87
2024-01-16T15:43:51.540Z,3.73
2024-01-16T15:48:53.091Z,3.63
2024-01-16T15:53:54.616Z,3.46
2024-01-16T15:58:56.093Z,3.35
2024-01-16T16:03:57.465Z,3.18
2024-01-16T16:08:59.066Z,3.10
2024-01-16T16:14:00.492Z,2.97
2024-01-16T16:19:02.131Z,2.81
2024-01-16T16:24:04.146Z,2.75
2024-01-16T16:29:07.622Z,2.67
2024-01-16T16:34:12.851Z,2.60
2024-01-16T16:39:17.568Z,2.45
2024-01-16T16:44:19.010Z,2.27
2024-01-16T16:49:20.532Z,2.18
2024-01-16T16:54:22.020Z,2.09
2024-01-16T16:59:23.946Z,2.03
2024-01-16T17:04:25.707Z,1.98
2024-01-16T17:09:27.206Z,1.95
2024-01-16T17:14:28.612Z,1.98
2024-01-16T17:19:30.154Z,2.07
2024-01-16T17:24:31.612Z,2.05
2024-01-16T17:29:33.201Z,2.12
2024-01-16T17:34:35.198Z,2.06
2024-01-16T17:39:36.627Z,2.04
2024-01-16T17:44:50.782Z,1.95
2024-01-16T17:49:52.653Z,1.84
2024-01-16T17:54:54.077Z,1.72
2024-01-16T17:59:55.597Z,1.64
2024-01-16T18:04:57.077Z,1.59
2024-01-16T18:10:00.276Z,1.51
2024-01-16T18:15:02.096Z,1.47
2024-01-16T18:20:05.381Z,1.39
2024-01-16T18:25:09.643Z,1.34
2024-01-16T18:30:16.685Z,1.28
2024-01-16T18:35:18.470Z,1.19
2024-01-16T18:40:21.432Z,1.11
2024-01-16T18:45:22.963Z,1.02
2024-01-16T18:50:26.181Z,0.95
2024-01-16T18:55:27.720Z,0.90
2024-01-16T19:00:29.282Z,0.81
2024-01-16T19:05:31.703Z,0.74
2024-01-16T19:10:33.126Z,0.71
2024-01-16T19:15:34.988Z,0.63
2024-01-16T19:20:36.450Z,0.54
2024-01-16T19:25:37.886Z,0.45
2024-01-16T19:30:39.800Z,0.37
2024-01-16T19:35:41.219Z,0.28
2024-01-16T19:40:42.994Z,0.23
2024-01-16T19:45:47.863Z,0.17
2024-01-16T19:50:49.825Z,0.08
2024-01-16T19:55:52.065Z,0.04
2024-01-16T20:00:53.653Z,-0.03
2024-01-16T20:05:55.232Z,-0.07
2024-01-16T20:10:58.570Z,-0.13
2024-01-16T20:16:02.353Z,-0.21
2024-01-16T20:21:05.092Z,-0.29
2024-01-16T20:26:06.767Z,-0.34
2024-01-16T20:31:08.391Z,-0.36
2024-01-16T20:36:09.921Z,-0.41
2024-01-16T20:41:12.351Z,-0.45
2024-01-16T20:46:15.487Z,-0.55
2024-01-16T20:51:17.484Z,-0.67
2024-01-16T20:56:19.457Z,-0.65
2024-01-16T21:01:20.911Z,-0.62
2024-01-16T21:06:22.458Z,-0.68
2024-01-16T21:11:24.060Z,-0.74
2024-01-16T21:16:25.452Z,-0.83
2024-01-16T21:21:26.891Z,-0.81
2024-01-16T21:26:29.136Z,-0.82
2024-01-16T21:31:30.956Z,-0.94
2024-01-16T21:36:32.314Z,-0.94
2024-01-16T21:41:35.930Z,-1.00
2024-01-16T21:46:40.927Z,-1.04
2024-01-16T21:51:45.196Z,-1.09
2024-01-16T21:56:46.668Z,-1.15
2024-01-16T22:01:48.111Z,-1.23
2024-01-16T22:06:49.653Z,-1.42
2024-01-16T22:11:51.165Z,-1.47
2024-01-16T22:16:52.921Z,-1.46
2024-01-16T22:21:54.402Z,-1.49
2024-01-16T22:26:55.979Z,-1.77
2024-01-16T22:31:58.487Z,-1.73
2024-01-16T22:37:00.065Z,-1.77
2024-01-16T22:42:02.812Z,-1.88
2024-01-16T22:47:04.814Z,-1.86
2024-01-16T22:52:06.576Z,-1.89
2024-01-16T22:57:08.037Z,-1.94
2024-01-16T23:02:09.485Z,-2.08
2024-01-16T23:07:10.889Z,-2.05
2024-01-16T23:12:13.095Z,-2.09
2024-01-16T23:17:14.478Z,-2.14
2024-01-16T23:22:15.970Z,-2.03
2024-01-16T23:27:17.459Z,-1.98
2024-01-16T23:32:18.859Z,-2.01
2024-01-16T23:37:24.911Z,-2.03
2024-01-16T23:42:27.666Z,-2.03
2024-01-16T23:47:29.188Z,-2.04
2024-01-16T23:52:30.756Z,-2.01
2024-01-16T23:57:32.179Z,-2.01
